Hauptseite
METAR-TAF:

METAR-TAF

Flughäfen :

Kairouan, Tunesien

Breite: 35-40N, Länge: 010-06E, Höhe: 60 m

Beobachtung

Neuester Wetterbericht von vor 19 Minuten, um 10:00 UTC
Wind 2 kt aus Süd/Südwest
Temperatur 17°C
Luftfeuchtigkeit 52%
Luftdruck 1021 hPa
Sichtweite 10 km oder mehr
keine Wolken unter 1500 m und keine Kumulonimbus oder Gewitterwolken

METAR: DTTK 121000Z 20002KT CAVOK 17/07 Q1021

Zeit: 11:19 (10:19 UTC)


TAF: fehlend

Wetterbeobachtungen und Prognosen von mehr als 4000 Flughäfen (METAR und TAF Bericht).

Die verfügbaren Stationen werden durch gelbe und rote Markierungen auf der Karte dargestellt.

Führen Sie die Maus auf sie, um den Namen der Station zu sehen.

Darauf klicken, um die Beobachtung von Wetterbeobachtungen und Prognosen zu sehen.

Um die Karte zu ändern : klicken Sie auf den grünen Tasten mit einem schwarzen Kreuz Zum Vergrößern, auf den grünen Button mit einem Gedankenstrich zu verkleinern, oder auf die grünen Pfeile für benachbarte Karten.


METAR-TAF: